createdAt,value
2022-12-01T00:00:24.569Z,99483.18
2022-12-01T00:03:12.003Z,99479.55
2022-12-01T00:05:39.699Z,99478.44
2022-12-01T00:08:07.270Z,99475.23
2022-12-01T00:10:35.180Z,99478.27
2022-12-01T00:13:02.932Z,99471.70
2022-12-01T00:15:30.653Z,99472.20
2022-12-01T00:17:58.346Z,99472.23
2022-12-01T00:20:26.070Z,99476.98
2022-12-01T00:22:53.712Z,99477.55
2022-12-01T00:25:21.469Z,99478.58
2022-12-01T00:27:49.197Z,99474.36
2022-12-01T00:30:16.925Z,99474.52
2022-12-01T00:32:44.477Z,99475.54
2022-12-01T00:35:11.964Z,99474.02
2022-12-01T00:37:39.569Z,99476.44
2022-12-01T00:40:07.209Z,99481.71
2022-12-01T00:42:34.957Z,99483.41
2022-12-01T00:45:02.650Z,99482.90
2022-12-01T00:47:30.361Z,99483.20
2022-12-01T00:49:57.943Z,99484.86
2022-12-01T00:52:25.752Z,99479.80
2022-12-01T00:54:53.404Z,99480.98
2022-12-01T00:57:20.998Z,99480.70
2022-12-01T00:59:48.683Z,99478.55
2022-12-01T01:02:16.652Z,99477.91
2022-12-01T01:04:44.379Z,99471.34
2022-12-01T01:07:11.994Z,99472.16
2022-12-01T01:09:39.594Z,99467.41
2022-12-01T01:12:07.179Z,99468.59
2022-12-01T01:14:34.872Z,99470.96
2022-12-01T01:17:02.678Z,99467.64
2022-12-01T01:19:30.214Z,99466.45
2022-12-01T01:21:57.833Z,99463.77
2022-12-01T01:24:25.478Z,99461.23
2022-12-01T01:26:53.228Z,99460.36
2022-12-01T01:29:20.800Z,99464.56
2022-12-01T01:31:48.511Z,99466.13
2022-12-01T01:34:16.206Z,99462.10
2022-12-01T01:36:43.659Z,99462.66
2022-12-01T01:39:11.348Z,99467.04
2022-12-01T01:41:38.972Z,99466.20
2022-12-01T01:44:06.541Z,99468.39
2022-12-01T01:46:34.293Z,99463.81
2022-12-01T01:49:02.100Z,99455.70
2022-12-01T01:51:29.569Z,99452.34
2022-12-01T01:53:57.106Z,99443.14
2022-12-01T01:56:24.611Z,99443.69
2022-12-01T01:58:52.440Z,99444.21
2022-12-01T02:01:20.133Z,99442.36
2022-12-01T02:03:48.050Z,99441.67
2022-12-01T02:06:15.676Z,99437.95
2022-12-01T02:08:43.069Z,99441.30
2022-12-01T02:11:10.671Z,99439.64
2022-12-01T02:13:38.282Z,99437.80
2022-12-01T02:16:06.011Z,99441.89
2022-12-01T02:18:33.642Z,99441.19
2022-12-01T02:21:01.404Z,99443.87
2022-12-01T02:23:29.086Z,99442.16
2022-12-01T02:25:56.698Z,99442.13
2022-12-01T02:28:24.314Z,99440.77
2022-12-01T02:30:51.948Z,99442.30
2022-12-01T02:33:19.562Z,99441.67
2022-12-01T02:35:47.205Z,99441.51
2022-12-01T02:38:14.712Z,99444.85
2022-12-01T02:40:42.399Z,99443.64
2022-12-01T02:43:09.883Z,99444.79
2022-12-01T02:45:37.631Z,99445.27
2022-12-01T02:48:05.247Z,99443.26
2022-12-01T02:50:32.943Z,99435.68
2022-12-01T02:53:00.532Z,99440.94
2022-12-01T02:55:27.989Z,99444.81
2022-12-01T02:57:55.729Z,99438.75
2022-12-01T03:00:23.168Z,99439.41
2022-12-01T03:02:51.282Z,99436.52
2022-12-01T03:05:18.711Z,99435.36
2022-12-01T03:07:46.548Z,99431.69
2022-12-01T03:10:14.079Z,99429.17
2022-12-01T03:12:42.058Z,99428.33
2022-12-01T03:15:09.401Z,99426.62
2022-12-01T03:17:37.227Z,99427.93
2022-12-01T03:20:04.862Z,99422.88
2022-12-01T03:22:32.626Z,99421.89
2022-12-01T03:24:59.998Z,99418.89
2022-12-01T03:27:27.908Z,99415.36
2022-12-01T03:29:55.551Z,99412.16
2022-12-01T03:32:23.685Z,99409.45
2022-12-01T03:34:51.386Z,99409.26
2022-12-01T03:37:19.080Z,99410.27
2022-12-01T03:39:46.798Z,99408.65
2022-12-01T03:42:14.645Z,99404.98
2022-12-01T03:44:42.240Z,99404.98
2022-12-01T03:47:09.941Z,99404.96
2022-12-01T03:49:37.550Z,99405.27
2022-12-01T03:52:05.331Z,99410.29
2022-12-01T03:54:33.012Z,99412.80
2022-12-01T03:57:00.505Z,99411.32
2022-12-01T03:59:28.559Z,99408.66
2022-12-01T04:01:56.303Z,99410.85
2022-12-01T04:04:24.007Z,99410.83
2022-12-01T04:06:51.431Z,99408.97
2022-12-01T04:09:18.978Z,99405.07
2022-12-01T04:11:46.692Z,99402.52
2022-12-01T04:14:14.212Z,99395.84
2022-12-01T04:16:41.740Z,99389.15
2022-12-01T04:19:09.567Z,99393.20
2022-12-01T04:21:37.057Z,99388.81
2022-12-01T04:24:05.005Z,99390.83
2022-12-01T04:26:32.555Z,99387.81
2022-12-01T04:29:00.397Z,99385.44
2022-12-01T04:31:28.064Z,99390.13
2022-12-01T04:33:55.806Z,99391.16
2022-12-01T04:36:23.220Z,99388.48
2022-12-01T04:38:51.072Z,99383.98
2022-12-01T04:41:19.040Z,99389.89
2022-12-01T04:43:46.667Z,99392.23
2022-12-01T04:46:14.636Z,99391.22
2022-12-01T04:48:42.280Z,99394.72
2022-12-01T04:51:09.820Z,99390.17
2022-12-01T04:53:37.652Z,99396.23
2022-12-01T04:56:05.306Z,99399.95
2022-12-01T04:58:33.003Z,99403.35
2022-12-01T05:01:00.670Z,99401.84
2022-12-01T05:03:28.536Z,99402.17
2022-12-01T05:05:56.079Z,99403.17
2022-12-01T05:08:23.588Z,99400.98
2022-12-01T05:10:50.947Z,99401.61
2022-12-01T05:13:18.764Z,99405.52
2022-12-01T05:15:46.320Z,99406.54
2022-12-01T05:18:13.921Z,99400.98
2022-12-01T05:20:41.572Z,99400.15
2022-12-01T05:23:15.121Z,99402.14
2022-12-01T05:25:44.389Z,99399.59
2022-12-01T05:28:11.997Z,99402.65
2022-12-01T05:30:39.623Z,99402.17
2022-12-01T05:33:07.213Z,99401.67
2022-12-01T05:35:34.782Z,99403.69
2022-12-01T05:38:07.599Z,99407.56
2022-12-01T05:40:35.611Z,99403.85
2022-12-01T05:43:03.457Z,99402.84
2022-12-01T05:45:30.929Z,99402.66
2022-12-01T05:47:58.614Z,99398.48
2022-12-01T05:50:26.143Z,99396.50
2022-12-01T05:52:53.930Z,99396.33
2022-12-01T05:55:21.560Z,99398.69
2022-12-01T05:57:48.916Z,99402.40
2022-12-01T06:00:16.540Z,99401.05
2022-12-01T06:02:43.917Z,99405.08
2022-12-01T06:05:11.304Z,99409.09
2022-12-01T06:07:38.838Z,99413.66
2022-12-01T06:10:06.752Z,99416.86
2022-12-01T06:12:34.548Z,99419.39
2022-12-01T06:15:02.363Z,99423.61
2022-12-01T06:17:29.907Z,99427.81
2022-12-01T06:19:57.724Z,99434.05
2022-12-01T06:22:25.483Z,99433.55
2022-12-01T06:24:53.218Z,99433.59
2022-12-01T06:27:20.668Z,99431.73
2022-12-01T06:29:48.403Z,99433.41
2022-12-01T06:32:16.084Z,99431.05
2022-12-01T06:34:43.724Z,99431.02
2022-12-01T06:37:11.135Z,99433.04
2022-12-01T06:39:38.826Z,99433.58
2022-12-01T06:42:06.688Z,99432.08
2022-12-01T06:44:34.371Z,99433.92
2022-12-01T06:47:01.967Z,99434.41
2022-12-01T06:49:29.733Z,99433.54
2022-12-01T06:51:57.297Z,99435.52
2022-12-01T06:54:24.866Z,99437.91
2022-12-01T06:56:52.679Z,99438.62
2022-12-01T06:59:20.234Z,99439.14
2022-12-01T07:01:48.524Z,99444.83
2022-12-01T07:04:16.166Z,99452.88
2022-12-01T07:06:43.739Z,99451.66
2022-12-01T07:09:11.659Z,99453.16
2022-12-01T07:11:39.305Z,99449.77
2022-12-01T07:14:06.734Z,99457.23
2022-12-01T07:16:34.466Z,99454.88
2022-12-01T07:19:02.312Z,99454.75
2022-12-01T07:21:29.971Z,99455.06
2022-12-01T07:23:57.753Z,99449.98
2022-12-01T07:26:25.301Z,99453.85
2022-12-01T07:28:52.870Z,99460.41
2022-12-01T07:31:20.391Z,99464.63
2022-12-01T07:33:47.763Z,99461.63
2022-12-01T07:36:15.453Z,99461.65
2022-12-01T07:38:43.188Z,99462.16
2022-12-01T07:41:10.623Z,99458.77
2022-12-01T07:43:38.432Z,99456.56
2022-12-01T07:46:05.838Z,99455.70
2022-12-01T07:48:33.673Z,99459.45
2022-12-01T07:51:01.442Z,99461.83
2022-12-01T07:53:29.131Z,99465.35
2022-12-01T07:55:56.535Z,99461.44
2022-12-01T07:58:24.009Z,99459.88
2022-12-01T08:00:51.509Z,99458.19
2022-12-01T08:03:19.371Z,99462.55
2022-12-01T08:05:47.025Z,99459.06
2022-12-01T08:08:14.945Z,99459.42
2022-12-01T08:10:42.424Z,99459.09
2022-12-01T08:13:12.899Z,99461.61
2022-12-01T08:15:44.818Z,99464.60
2022-12-01T08:18:12.577Z,99460.71
2022-12-01T08:20:40.432Z,99457.84
2022-12-01T08:23:07.868Z,99461.08
2022-12-01T08:25:35.513Z,99463.46
2022-12-01T08:28:03.178Z,99464.85
2022-12-01T08:30:30.675Z,99464.35
2022-12-01T08:32:58.414Z,99467.72
2022-12-01T08:35:26.153Z,99472.93
2022-12-01T08:37:53.904Z,99470.73
2022-12-01T08:40:21.314Z,99478.30
2022-12-01T08:42:49.102Z,99482.23
2022-12-01T08:45:17.161Z,99486.46
2022-12-01T08:47:44.735Z,99482.26
2022-12-01T08:50:12.272Z,99483.77
2022-12-01T08:52:39.860Z,99484.27
2022-12-01T08:55:07.233Z,99483.60
2022-12-01T08:57:34.859Z,99483.94
2022-12-01T09:00:02.206Z,99481.76
2022-12-01T09:02:29.846Z,99480.27
2022-12-01T09:04:57.412Z,99480.80
2022-12-01T09:07:26.848Z,99478.60
2022-12-01T09:09:54.924Z,99479.77
2022-12-01T09:12:22.374Z,99474.86
2022-12-01T09:14:50.104Z,99476.02
2022-12-01T09:17:18.021Z,99469.10
2022-12-01T09:19:45.966Z,99467.61
2022-12-01T09:22:13.479Z,99467.48
2022-12-01T09:24:41.305Z,99468.21
2022-12-01T09:27:09.029Z,99460.29
2022-12-01T09:29:36.621Z,99459.92
2022-12-01T09:32:04.399Z,99459.08
2022-12-01T09:34:32.224Z,99457.89
2022-12-01T09:36:59.707Z,99453.67
2022-12-01T09:39:27.575Z,99453.39
2022-12-01T09:41:55.103Z,99450.92
2022-12-01T09:44:22.719Z,99446.37
2022-12-01T09:46:50.292Z,99439.46
2022-12-01T09:49:17.780Z,99442.83
2022-12-01T09:51:45.668Z,99442.32
2022-12-01T09:54:13.483Z,99440.13
2022-12-01T09:56:41.104Z,99436.79
2022-12-01T09:59:08.563Z,99435.80
2022-12-01T10:01:36.002Z,99435.59
2022-12-01T10:04:03.469Z,99435.75
2022-12-01T10:06:31.435Z,99437.59
2022-12-01T10:08:59.123Z,99435.41
2022-12-01T10:11:26.866Z,99433.53
2022-12-01T10:13:54.360Z,99433.05
2022-12-01T10:16:21.775Z,99430.20
2022-12-01T10:18:49.207Z,99430.23
2022-12-01T10:21:16.608Z,99431.04
2022-12-01T10:23:44.315Z,99427.29
2022-12-01T10:26:11.901Z,99426.59
2022-12-01T10:28:39.683Z,99424.88
2022-12-01T10:31:07.208Z,99428.80
2022-12-01T10:33:34.671Z,99424.08
2022-12-01T10:36:02.105Z,99425.39
2022-12-01T10:38:29.774Z,99420.00
2022-12-01T10:40:57.187Z,99418.46
2022-12-01T10:43:24.606Z,99420.80
2022-12-01T10:45:52.364Z,99418.31
2022-12-01T10:48:19.804Z,99418.02
2022-12-01T10:50:47.227Z,99412.11
2022-12-01T10:53:14.752Z,99412.59
2022-12-01T10:55:47.659Z,99408.88
2022-12-01T10:58:15.848Z,99414.59
2022-12-01T11:00:59.015Z,99410.73
2022-12-01T11:03:27.712Z,99410.44
2022-12-01T11:05:55.244Z,99407.91
2022-12-01T11:08:24.108Z,99407.58
2022-12-01T11:10:52.894Z,99403.04
2022-12-01T11:13:21.478Z,99401.83
2022-12-01T11:15:49.142Z,99402.33
2022-12-01T11:18:16.626Z,99398.95
2022-12-01T11:20:44.251Z,99397.61
2022-12-01T11:23:12.010Z,99393.92
2022-12-01T11:25:39.520Z,99392.41
2022-12-01T11:28:07.189Z,99393.56
2022-12-01T11:30:34.648Z,99392.20
2022-12-01T11:33:02.333Z,99391.51
2022-12-01T11:35:30.173Z,99391.99
2022-12-01T11:38:28.379Z,99390.64
2022-12-01T11:40:45.030Z,99392.50
2022-12-01T11:43:12.456Z,99388.30
2022-12-01T11:45:40.295Z,99386.95
2022-12-01T11:48:08.035Z,99383.75
2022-12-01T11:50:35.448Z,99381.73
2022-12-01T11:53:03.021Z,99385.77
2022-12-01T11:55:30.449Z,99387.96
2022-12-01T11:57:58.073Z,99390.35
2022-12-01T12:00:25.534Z,99390.69
2022-12-01T12:02:52.905Z,99390.36
2022-12-01T12:05:20.591Z,99389.02
2022-12-01T12:07:48.125Z,99389.31
2022-12-01T12:10:15.519Z,99393.00
2022-12-01T12:12:43.389Z,99392.45
2022-12-01T12:15:10.957Z,99394.68
2022-12-01T12:17:39.193Z,99394.66
2022-12-01T12:20:09.686Z,99394.48
2022-12-01T12:22:38.890Z,99395.65
2022-12-01T12:25:06.502Z,99398.69
2022-12-01T12:27:34.003Z,99399.52
2022-12-01T12:30:01.392Z,99402.59
2022-12-01T12:32:29.001Z,99397.21
2022-12-01T12:34:56.474Z,99399.23
2022-12-01T12:37:27.019Z,99400.71
2022-12-01T12:39:54.418Z,99395.64
2022-12-01T12:42:21.870Z,99396.61
2022-12-01T12:44:49.289Z,99400.11
2022-12-01T12:47:16.741Z,99407.70
2022-12-01T12:49:44.121Z,99404.67
2022-12-01T12:52:11.507Z,99404.35
2022-12-01T12:54:39.337Z,99400.44
2022-12-01T12:57:06.836Z,99399.91
2022-12-01T12:59:34.574Z,99401.91
2022-12-01T13:02:02.041Z,99401.90
2022-12-01T13:04:29.429Z,99399.38
2022-12-01T13:06:56.897Z,99396.84
2022-12-01T13:09:24.409Z,99402.69
2022-12-01T13:11:53.071Z,99408.08
2022-12-01T13:14:20.615Z,99408.56
2022-12-01T13:16:48.064Z,99406.34
2022-12-01T13:19:15.463Z,99406.18
2022-12-01T13:21:43.354Z,99405.54
2022-12-01T13:24:10.969Z,99406.55
2022-12-01T13:26:38.452Z,99402.68
2022-12-01T13:29:06.482Z,99406.05
2022-12-01T13:31:34.307Z,99404.71
2022-12-01T13:34:01.762Z,99402.18
2022-12-01T13:36:46.270Z,99401.17
2022-12-01T13:39:14.619Z,99401.16
2022-12-01T13:41:42.029Z,99400.02
2022-12-01T13:44:09.618Z,99401.73
2022-12-01T13:46:37.308Z,99401.05
2022-12-01T13:49:04.865Z,99401.23
2022-12-01T13:51:32.551Z,99402.91
2022-12-01T13:54:00.073Z,99402.39
2022-12-01T13:56:27.687Z,99405.61
2022-12-01T13:58:55.327Z,99407.15
2022-12-01T14:01:23.259Z,99404.81
2022-12-01T14:03:51.175Z,99403.78
2022-12-01T14:06:18.541Z,99402.41
2022-12-01T14:08:46.206Z,99400.36
2022-12-01T14:11:13.793Z,99402.70
2022-12-01T14:13:41.299Z,99402.85
2022-12-01T14:16:09.203Z,99397.67
2022-12-01T14:18:36.962Z,99398.37
2022-12-01T14:21:04.307Z,99399.40
2022-12-01T14:23:31.740Z,99401.57
2022-12-01T14:25:59.346Z,99401.90
2022-12-01T14:28:27.662Z,99411.30
2022-12-01T14:30:57.231Z,99408.40
2022-12-01T14:33:25.075Z,99412.10
2022-12-01T14:35:52.551Z,99408.91
2022-12-01T14:38:20.145Z,99409.24
2022-12-01T14:40:47.678Z,99406.89
2022-12-01T14:43:15.105Z,99405.17
2022-12-01T14:45:42.716Z,99405.66
2022-12-01T14:48:10.106Z,99405.66
2022-12-01T14:50:42.108Z,99405.66
2022-12-01T14:53:12.597Z,99407.04
2022-12-01T14:55:39.955Z,99405.73
2022-12-01T14:58:07.537Z,99408.58
2022-12-01T15:00:34.949Z,99407.07
2022-12-01T15:03:02.544Z,99407.56
2022-12-01T15:05:29.964Z,99405.03
2022-12-01T15:08:18.564Z,99407.36
2022-12-01T15:10:45.201Z,99405.16
2022-12-01T15:13:12.553Z,99408.52
2022-12-01T15:15:40.045Z,99406.36
2022-12-01T15:18:07.576Z,99404.52
2022-12-01T15:20:34.941Z,99402.34
2022-12-01T15:23:02.326Z,99405.00
2022-12-01T15:25:29.808Z,99402.47
2022-12-01T15:27:57.328Z,99403.98
2022-12-01T15:30:24.724Z,99407.34
2022-12-01T15:32:52.134Z,99409.31
2022-12-01T15:35:19.742Z,99403.48
2022-12-01T15:37:47.130Z,99404.48
2022-12-01T15:43:02.658Z,99403.30
2022-12-01T15:45:30.271Z,99404.31
2022-12-01T15:47:57.998Z,99405.11
2022-12-01T15:50:25.681Z,99405.10
2022-12-01T15:52:53.142Z,99408.66
2022-12-01T15:55:20.815Z,99410.20
2022-12-01T15:57:48.310Z,99409.00
2022-12-01T16:00:15.744Z,99409.64
2022-12-01T16:02:43.322Z,99412.15
2022-12-01T16:05:10.748Z,99408.75
2022-12-01T16:08:11.514Z,99406.89
2022-12-01T16:10:25.481Z,99405.89
2022-12-01T16:12:52.851Z,99408.79
2022-12-01T16:15:20.280Z,99409.10
2022-12-01T16:17:47.712Z,99406.73
2022-12-01T16:20:15.102Z,99405.54
2022-12-01T16:22:42.620Z,99403.52
2022-12-01T16:25:10.103Z,99402.30
2022-12-01T16:27:37.505Z,99404.54
2022-12-01T16:30:04.983Z,99403.90
2022-12-01T16:32:32.460Z,99400.20
2022-12-01T16:35:00.088Z,99403.70
2022-12-01T16:37:27.705Z,99403.52
2022-12-01T16:39:55.115Z,99406.20
2022-12-01T16:42:22.526Z,99407.01
2022-12-01T16:44:50.308Z,99404.98
2022-12-01T16:47:18.018Z,99406.04
2022-12-01T16:49:45.475Z,99404.88
2022-12-01T16:52:43.281Z,99404.05
2022-12-01T16:55:00.404Z,99402.19
2022-12-01T16:57:27.778Z,99403.87
2022-12-01T16:59:55.267Z,99402.00
2022-12-01T17:02:22.716Z,99403.52
2022-12-01T17:04:50.421Z,99403.84
2022-12-01T17:07:18.196Z,99406.21
2022-12-01T17:09:45.562Z,99405.22
2022-12-01T17:12:13.225Z,99405.25
2022-12-01T17:14:40.638Z,99404.70
2022-12-01T17:17:08.096Z,99407.37
2022-12-01T17:19:35.434Z,99405.13
2022-12-01T17:22:02.840Z,99407.78
2022-12-01T17:24:31.127Z,99407.48
2022-12-01T17:26:58.613Z,99406.83
2022-12-01T17:29:26.047Z,99409.80
2022-12-01T17:31:53.563Z,99405.76
2022-12-01T17:34:20.920Z,99408.45
2022-12-01T17:36:48.342Z,99407.77
2022-12-01T17:39:15.738Z,99406.42
2022-12-01T17:41:43.102Z,99401.09
2022-12-01T17:44:10.595Z,99400.63
2022-12-01T17:46:38.038Z,99400.33
2022-12-01T17:49:05.534Z,99396.27
2022-12-01T17:51:33.077Z,99399.60
2022-12-01T17:54:00.496Z,99399.41
2022-12-01T17:56:27.962Z,99398.54
2022-12-01T17:58:55.391Z,99395.99
2022-12-01T18:01:26.943Z,99395.45
2022-12-01T18:03:57.659Z,99399.48
2022-12-01T18:06:25.037Z,99399.31
2022-12-01T18:08:52.445Z,99399.31
2022-12-01T18:11:20.235Z,99399.97
2022-12-01T18:13:48.026Z,99399.59
2022-12-01T18:16:15.688Z,99402.27
2022-12-01T18:18:44.149Z,99404.12
2022-12-01T18:21:11.913Z,99404.12
2022-12-01T18:23:39.622Z,99400.30
2022-12-01T18:26:12.123Z,99400.98
2022-12-01T18:28:42.908Z,99398.81
2022-12-01T18:31:11.078Z,99397.79
2022-12-01T18:33:38.765Z,99399.46
2022-12-01T18:36:06.400Z,99398.45
2022-12-01T18:38:34.240Z,99401.94
2022-12-01T18:41:01.857Z,99406.46
2022-12-01T18:43:29.787Z,99407.30
2022-12-01T18:45:57.290Z,99403.44
2022-12-01T18:48:25.330Z,99400.70
2022-12-01T18:50:59.046Z,99406.08
2022-12-01T18:53:26.874Z,99403.88
2022-12-01T18:55:54.684Z,99398.13
2022-12-01T18:58:22.315Z,99399.61
2022-12-01T19:00:49.921Z,99400.63
2022-12-01T19:03:17.561Z,99399.81
2022-12-01T19:05:45.285Z,99399.11
2022-12-01T19:08:12.860Z,99397.42
2022-12-01T19:10:40.277Z,99398.58
2022-12-01T19:13:08.198Z,99401.58
2022-12-01T19:15:35.732Z,99399.05
2022-12-01T19:18:03.506Z,99399.38
2022-12-01T19:20:31.280Z,99396.41
2022-12-01T19:22:58.823Z,99397.77
2022-12-01T19:25:26.171Z,99395.96
2022-12-01T19:27:53.791Z,99396.59
2022-12-01T19:30:21.243Z,99395.75
2022-12-01T19:32:48.618Z,99393.39
2022-12-01T19:35:16.171Z,99393.72
2022-12-01T19:37:43.595Z,99392.52
2022-12-01T19:40:11.054Z,99396.23
2022-12-01T19:42:38.439Z,99394.80
2022-12-01T19:45:06.004Z,99394.01
2022-12-01T19:47:33.428Z,99394.88
2022-12-01T19:50:00.877Z,99394.87
2022-12-01T19:52:28.300Z,99394.54
2022-12-01T19:54:55.868Z,99394.69
2022-12-01T19:57:23.335Z,99392.30
2022-12-01T19:59:50.735Z,99389.08
2022-12-01T20:02:18.130Z,99385.55
2022-12-01T20:04:45.693Z,99387.41
2022-12-01T20:07:13.186Z,99380.91
2022-12-01T20:09:43.268Z,99379.08
2022-12-01T20:12:13.171Z,99382.92
2022-12-01T20:14:40.885Z,99383.05
2022-12-01T20:17:12.872Z,99383.03
2022-12-01T20:19:43.110Z,99379.16
2022-12-01T20:22:10.649Z,99380.98
2022-12-01T20:24:38.131Z,99379.98
2022-12-01T20:27:05.865Z,99378.16
2022-12-01T20:29:33.249Z,99380.71
2022-12-01T20:32:01.189Z,99376.81
2022-12-01T20:34:28.902Z,99378.14
2022-12-01T20:36:56.279Z,99378.10
2022-12-01T20:39:23.673Z,99377.23
2022-12-01T20:41:51.343Z,99375.86
2022-12-01T20:44:18.848Z,99373.88
2022-12-01T20:46:46.351Z,99371.69
2022-12-01T20:49:13.809Z,99371.02
2022-12-01T20:51:41.504Z,99372.02
2022-12-01T20:56:56.422Z,99375.34
2022-12-01T20:59:23.997Z,99372.63
2022-12-01T21:01:51.363Z,99376.33
2022-12-01T21:04:18.789Z,99374.63
2022-12-01T21:06:46.309Z,99374.83
2022-12-01T21:09:13.794Z,99378.69
2022-12-01T21:11:41.174Z,99378.54
2022-12-01T21:14:09.037Z,99378.36
2022-12-01T21:16:36.489Z,99376.50
2022-12-01T21:19:03.951Z,99374.45
2022-12-01T21:21:31.365Z,99372.39
2022-12-01T21:23:58.743Z,99373.69
2022-12-01T21:26:26.199Z,99374.59
2022-12-01T21:28:53.711Z,99378.69
2022-12-01T21:31:21.176Z,99383.08
2022-12-01T21:33:48.848Z,99379.86
2022-12-01T21:36:16.454Z,99381.66
2022-12-01T21:38:43.990Z,99385.52
2022-12-01T21:41:11.880Z,99380.27
2022-12-01T21:43:39.423Z,99383.59
2022-12-01T21:46:07.159Z,99380.58
2022-12-01T21:48:34.787Z,99379.73
2022-12-01T21:51:02.342Z,99381.65
2022-12-01T21:53:30.174Z,99382.66
2022-12-01T21:55:57.692Z,99382.66
2022-12-01T21:58:25.185Z,99379.63
2022-12-01T22:00:52.649Z,99378.55
2022-12-01T22:03:20.208Z,99372.81
2022-12-01T22:06:06.966Z,99372.10
2022-12-01T22:08:35.648Z,99372.27
2022-12-01T22:11:03.032Z,99371.33
2022-12-01T22:13:30.611Z,99370.48
2022-12-01T22:15:58.239Z,99366.80
2022-12-01T22:18:25.711Z,99364.27
2022-12-01T22:20:53.096Z,99361.40
2022-12-01T22:23:21.003Z,99365.10
2022-12-01T22:25:48.472Z,99369.59
2022-12-01T22:28:16.264Z,99368.06
2022-12-01T22:30:44.290Z,99366.42
2022-12-01T22:33:11.919Z,99366.11
2022-12-01T22:35:39.755Z,99364.76
2022-12-01T22:38:07.461Z,99363.03
2022-12-01T22:40:35.257Z,99364.19
2022-12-01T22:43:02.771Z,99361.27
2022-12-01T22:45:30.509Z,99357.39
2022-12-01T22:47:58.361Z,99361.10
2022-12-01T22:50:25.787Z,99359.63
2022-12-01T22:52:53.617Z,99358.10
2022-12-01T22:55:21.356Z,99356.90
2022-12-01T22:57:49.148Z,99353.85
2022-12-01T23:00:16.662Z,99352.16
2022-12-01T23:02:44.747Z,99352.14
2022-12-01T23:05:12.136Z,99349.84
2022-12-01T23:07:39.544Z,99344.64
2022-12-01T23:10:07.283Z,99345.64
2022-12-01T23:12:34.834Z,99346.59
2022-12-01T23:15:02.487Z,99344.55
2022-12-01T23:17:29.857Z,99342.31
2022-12-01T23:19:57.542Z,99344.14
2022-12-01T23:22:25.484Z,99343.13
2022-12-01T23:24:53.294Z,99342.81
2022-12-01T23:27:21.016Z,99344.35
2022-12-01T23:29:48.518Z,99343.71
2022-12-01T23:32:16.042Z,99346.40
2022-12-01T23:34:43.704Z,99343.17
2022-12-01T23:37:11.454Z,99342.81
2022-12-01T23:39:39.004Z,99341.46
2022-12-01T23:42:06.661Z,99338.09
2022-12-01T23:44:34.460Z,99337.23
2022-12-01T23:47:02.057Z,99334.52
2022-12-01T23:49:29.654Z,99331.89
2022-12-01T23:51:57.289Z,99340.63
2022-12-01T23:54:24.716Z,99337.96
2022-12-01T23:56:52.065Z,99340.31
2022-12-01T23:59:19.648Z,99338.94
